Terminal Aerodrome Forecast
Issued by NWS Grand Forks, ND

Home | Current Version | Previous Version | Text Only | Print | Product List | Glossary Off
Versions: 1 2 3 4 5 6 7 8 9 10 11 12 13 14

000
FTUS43 KFGF 300500
TAFFAR
TAF
KFAR 300520Z 3006/3106 23006KT P6SM SKC
     FM301100 16006KT P6SM BKN120
     FM302100 30017G25KT P6SM SCT120
     FM310200 28007KT P6SM SKC=

USA.gov is the U.S. government's official web portal to all federal, state and local government web resources and services.